sensor_id;sensor_type;location;lat;lon;timestamp;temperature;humidity
30381;DHT22;17169;50.966;11.038;2022-10-24T00:02:59;15.40;99.90
30381;DHT22;17169;50.966;11.038;2022-10-24T00:06:04;15.30;99.90
30381;DHT22;17169;50.966;11.038;2022-10-24T00:09:07;15.30;99.90
30381;DHT22;17169;50.966;11.038;2022-10-24T00:12:09;15.30;99.90
30381;DHT22;17169;50.966;11.038;2022-10-24T00:15:12;15.30;99.90
30381;DHT22;17169;50.966;11.038;2022-10-24T00:18:15;15.30;99.90
30381;DHT22;17169;50.966;11.038;2022-10-24T00:21:19;15.30;99.90
30381;DHT22;17169;50.966;11.038;2022-10-24T00:24:22;15.40;99.90
30381;DHT22;17169;50.966;11.038;2022-10-24T00:27:25;15.40;99.90
30381;DHT22;17169;50.966;11.038;2022-10-24T00:30:27;15.40;99.90
30381;DHT22;17169;50.966;11.038;2022-10-24T00:33:30;15.50;99.90
30381;DHT22;17169;50.966;11.038;2022-10-24T00:36:33;15.60;99.90
30381;DHT22;17169;50.966;11.038;2022-10-24T00:39:36;15.60;99.90
30381;DHT22;17169;50.966;11.038;2022-10-24T00:42:38;15.70;99.90
30381;DHT22;17169;50.966;11.038;2022-10-24T00:45:47;15.70;99.90
30381;DHT22;17169;50.966;11.038;2022-10-24T00:48:52;15.80;99.90
30381;DHT22;17169;50.966;11.038;2022-10-24T00:52:01;15.80;99.90
30381;DHT22;17169;50.966;11.038;2022-10-24T00:55:05;15.90;99.90
30381;DHT22;17169;50.966;11.038;2022-10-24T00:58:08;15.90;99.90
30381;DHT22;17169;50.966;11.038;2022-10-24T01:01:11;15.90;99.90
30381;DHT22;17169;50.966;11.038;2022-10-24T01:04:14;16.00;99.90
30381;DHT22;17169;50.966;11.038;2022-10-24T01:07:26;16.00;99.90
30381;DHT22;17169;50.966;11.038;2022-10-24T01:10:38;16.00;99.90
30381;DHT22;17169;50.966;11.038;2022-10-24T01:13:51;15.90;99.90
30381;DHT22;17169;50.966;11.038;2022-10-24T01:17:05;15.90;99.90
30381;DHT22;17169;50.966;11.038;2022-10-24T01:20:46;15.90;99.90
30381;DHT22;17169;50.966;11.038;2022-10-24T01:27:52;15.90;99.90
30381;DHT22;17169;50.966;11.038;2022-10-24T01:31:03;16.00;99.90
30381;DHT22;17169;50.966;11.038;2022-10-24T01:34:10;16.00;99.90
30381;DHT22;17169;50.966;11.038;2022-10-24T01:37:20;16.00;99.90
30381;DHT22;17169;50.966;11.038;2022-10-24T01:40:28;16.00;99.90
30381;DHT22;17169;50.966;11.038;2022-10-24T01:43:34;16.00;99.90
30381;DHT22;17169;50.966;11.038;2022-10-24T01:46:41;16.00;99.90
30381;DHT22;17169;50.966;11.038;2022-10-24T01:49:49;16.00;99.90
30381;DHT22;17169;50.966;11.038;2022-10-24T01:52:55;16.00;99.90
30381;DHT22;17169;50.966;11.038;2022-10-24T01:55:58;16.00;99.90
30381;DHT22;17169;50.966;11.038;2022-10-24T01:59:06;16.00;99.90
30381;DHT22;17169;50.966;11.038;2022-10-24T02:02:13;15.90;99.90
30381;DHT22;17169;50.966;11.038;2022-10-24T02:05:21;15.90;99.90
30381;DHT22;17169;50.966;11.038;2022-10-24T02:08:29;15.80;99.90
30381;DHT22;17169;50.966;11.038;2022-10-24T02:11:34;15.70;99.90
30381;DHT22;17169;50.966;11.038;2022-10-24T02:14:39;15.70;99.90
30381;DHT22;17169;50.966;11.038;2022-10-24T02:17:45;15.60;99.90
30381;DHT22;17169;50.966;11.038;2022-10-24T02:20:52;15.70;99.90
30381;DHT22;17169;50.966;11.038;2022-10-24T02:24:00;15.60;99.90
30381;DHT22;17169;50.966;11.038;2022-10-24T02:27:07;15.60;99.90
30381;DHT22;17169;50.966;11.038;2022-10-24T02:30:14;15.70;99.90
30381;DHT22;17169;50.966;11.038;2022-10-24T02:33:19;15.80;99.90
30381;DHT22;17169;50.966;11.038;2022-10-24T02:36:24;15.80;99.90
30381;DHT22;17169;50.966;11.038;2022-10-24T02:39:29;15.90;99.90
30381;DHT22;17169;50.966;11.038;2022-10-24T02:42:33;15.90;99.90
30381;DHT22;17169;50.966;11.038;2022-10-24T02:45:36;16.00;99.90
30381;DHT22;17169;50.966;11.038;2022-10-24T02:48:44;16.00;99.90
30381;DHT22;17169;50.966;11.038;2022-10-24T02:51:49;16.00;99.90
30381;DHT22;17169;50.966;11.038;2022-10-24T02:54:51;16.00;99.90
30381;DHT22;17169;50.966;11.038;2022-10-24T02:57:54;16.10;99.90
30381;DHT22;17169;50.966;11.038;2022-10-24T03:00:56;16.00;99.90
30381;DHT22;17169;50.966;11.038;2022-10-24T03:04:00;16.00;99.90
30381;DHT22;17169;50.966;11.038;2022-10-24T03:07:02;16.00;99.90
30381;DHT22;17169;50.966;11.038;2022-10-24T03:10:05;16.00;99.90
30381;DHT22;17169;50.966;11.038;2022-10-24T03:13:08;16.00;99.90
30381;DHT22;17169;50.966;11.038;2022-10-24T03:16:10;16.00;99.90
30381;DHT22;17169;50.966;11.038;2022-10-24T03:19:14;16.00;99.90
30381;DHT22;17169;50.966;11.038;2022-10-24T03:22:16;16.00;99.90
30381;DHT22;17169;50.966;11.038;2022-10-24T03:25:18;16.00;99.90
30381;DHT22;17169;50.966;11.038;2022-10-24T03:28:21;16.00;99.90
30381;DHT22;17169;50.966;11.038;2022-10-24T03:31:23;16.00;99.90
30381;DHT22;17169;50.966;11.038;2022-10-24T03:34:27;16.00;99.90
30381;DHT22;17169;50.966;11.038;2022-10-24T03:37:30;16.00;99.90
30381;DHT22;17169;50.966;11.038;2022-10-24T03:40:32;16.00;99.90
30381;DHT22;17169;50.966;11.038;2022-10-24T03:43:34;16.00;99.90
30381;DHT22;17169;50.966;11.038;2022-10-24T03:46:37;16.00;99.90
30381;DHT22;17169;50.966;11.038;2022-10-24T03:49:40;16.00;99.90
30381;DHT22;17169;50.966;11.038;2022-10-24T03:52:43;16.00;99.90
30381;DHT22;17169;50.966;11.038;2022-10-24T03:55:45;16.00;99.90
30381;DHT22;17169;50.966;11.038;2022-10-24T03:58:48;15.90;99.90
30381;DHT22;17169;50.966;11.038;2022-10-24T04:01:50;15.90;99.90
30381;DHT22;17169;50.966;11.038;2022-10-24T04:04:54;15.90;99.90
30381;DHT22;17169;50.966;11.038;2022-10-24T04:07:56;16.00;99.90
30381;DHT22;17169;50.966;11.038;2022-10-24T04:10:59;16.00;99.90
30381;DHT22;17169;50.966;11.038;2022-10-24T04:14:01;16.00;99.90
30381;DHT22;17169;50.966;11.038;2022-10-24T04:17:04;16.00;99.90
30381;DHT22;17169;50.966;11.038;2022-10-24T04:20:08;15.90;99.90
30381;DHT22;17169;50.966;11.038;2022-10-24T04:23:11;16.00;99.90
30381;DHT22;17169;50.966;11.038;2022-10-24T04:26:15;16.00;99.90
30381;DHT22;17169;50.966;11.038;2022-10-24T04:29:17;16.00;99.90
30381;DHT22;17169;50.966;11.038;2022-10-24T04:32:20;16.00;99.90
30381;DHT22;17169;50.966;11.038;2022-10-24T04:35:24;16.00;99.90
30381;DHT22;17169;50.966;11.038;2022-10-24T04:38:27;16.00;99.90
30381;DHT22;17169;50.966;11.038;2022-10-24T04:41:29;16.00;99.90
30381;DHT22;17169;50.966;11.038;2022-10-24T04:44:31;16.00;99.90
30381;DHT22;17169;50.966;11.038;2022-10-24T04:47:34;16.10;99.90
30381;DHT22;17169;50.966;11.038;2022-10-24T04:50:39;16.20;99.90
30381;DHT22;17169;50.966;11.038;2022-10-24T04:53:41;16.20;99.90
30381;DHT22;17169;50.966;11.038;2022-10-24T04:56:43;16.20;99.90
30381;DHT22;17169;50.966;11.038;2022-10-24T04:59:46;16.20;99.90
30381;DHT22;17169;50.966;11.038;2022-10-24T05:02:48;16.20;99.90
30381;DHT22;17169;50.966;11.038;2022-10-24T05:05:52;16.30;99.90
30381;DHT22;17169;50.966;11.038;2022-10-24T05:08:54;16.20;99.90
30381;DHT22;17169;50.966;11.038;2022-10-24T05:11:57;16.20;99.90
30381;DHT22;17169;50.966;11.038;2022-10-24T05:14:59;16.20;99.90
30381;DHT22;17169;50.966;11.038;2022-10-24T05:18:02;16.20;99.90
30381;DHT22;17169;50.966;11.038;2022-10-24T05:21:06;16.20;99.90
30381;DHT22;17169;50.966;11.038;2022-10-24T05:24:08;16.20;99.90
30381;DHT22;17169;50.966;11.038;2022-10-24T05:27:11;16.20;99.90
30381;DHT22;17169;50.966;11.038;2022-10-24T05:30:13;16.20;99.90
30381;DHT22;17169;50.966;11.038;2022-10-24T05:33:16;16.10;99.90
30381;DHT22;17169;50.966;11.038;2022-10-24T05:36:20;16.20;99.90
30381;DHT22;17169;50.966;11.038;2022-10-24T05:39:22;16.20;99.90
30381;DHT22;17169;50.966;11.038;2022-10-24T05:42:24;16.20;99.90
30381;DHT22;17169;50.966;11.038;2022-10-24T05:45:27;16.20;99.90
30381;DHT22;17169;50.966;11.038;2022-10-24T05:48:29;16.20;99.90
30381;DHT22;17169;50.966;11.038;2022-10-24T05:51:33;16.20;99.90
30381;DHT22;17169;50.966;11.038;2022-10-24T05:54:35;16.20;99.90
30381;DHT22;17169;50.966;11.038;2022-10-24T05:57:38;16.20;99.90
30381;DHT22;17169;50.966;11.038;2022-10-24T06:00:40;16.20;99.90
30381;DHT22;17169;50.966;11.038;2022-10-24T06:03:42;16.20;99.90
30381;DHT22;17169;50.966;11.038;2022-10-24T06:06:46;16.20;99.90
30381;DHT22;17169;50.966;11.038;2022-10-24T06:09:48;16.20;99.90
30381;DHT22;17169;50.966;11.038;2022-10-24T06:12:51;16.20;99.90
30381;DHT22;17169;50.966;11.038;2022-10-24T06:15:53;16.20;99.90
30381;DHT22;17169;50.966;11.038;2022-10-24T06:18:56;16.30;99.90
30381;DHT22;17169;50.966;11.038;2022-10-24T06:22:00;16.30;99.90
30381;DHT22;17169;50.966;11.038;2022-10-24T06:25:02;16.40;99.90
30381;DHT22;17169;50.966;11.038;2022-10-24T06:28:05;16.40;99.90
30381;DHT22;17169;50.966;11.038;2022-10-24T06:31:08;16.50;99.90
30381;DHT22;17169;50.966;11.038;2022-10-24T06:34:12;16.50;99.90
30381;DHT22;17169;50.966;11.038;2022-10-24T06:37:16;16.50;99.90
30381;DHT22;17169;50.966;11.038;2022-10-24T06:40:18;16.50;99.90
30381;DHT22;17169;50.966;11.038;2022-10-24T06:43:21;16.60;99.90
30381;DHT22;17169;50.966;11.038;2022-10-24T06:46:23;16.50;99.90
30381;DHT22;17169;50.966;11.038;2022-10-24T06:49:25;16.60;99.90
30381;DHT22;17169;50.966;11.038;2022-10-24T06:52:29;16.60;99.90
30381;DHT22;17169;50.966;11.038;2022-10-24T06:55:32;16.60;99.90
30381;DHT22;17169;50.966;11.038;2022-10-24T06:58:36;16.60;99.90
30381;DHT22;17169;50.966;11.038;2022-10-24T07:01:39;16.70;99.90
30381;DHT22;17169;50.966;11.038;2022-10-24T07:04:41;16.70;99.90
30381;DHT22;17169;50.966;11.038;2022-10-24T07:07:45;16.70;99.90
30381;DHT22;17169;50.966;11.038;2022-10-24T07:10:47;16.70;99.90
30381;DHT22;17169;50.966;11.038;2022-10-24T07:13:50;16.70;99.90
30381;DHT22;17169;50.966;11.038;2022-10-24T07:16:52;16.70;99.90
30381;DHT22;17169;50.966;11.038;2022-10-24T07:19:55;16.70;99.90
30381;DHT22;17169;50.966;11.038;2022-10-24T07:22:59;16.80;99.90
30381;DHT22;17169;50.966;11.038;2022-10-24T07:26:02;16.80;99.90
30381;DHT22;17169;50.966;11.038;2022-10-24T07:29:05;16.90;99.90
30381;DHT22;17169;50.966;11.038;2022-10-24T07:32:07;16.90;99.90
30381;DHT22;17169;50.966;11.038;2022-10-24T07:35:11;16.90;99.90
30381;DHT22;17169;50.966;11.038;2022-10-24T07:38:15;17.00;99.90
30381;DHT22;17169;50.966;11.038;2022-10-24T07:41:18;17.00;99.90
30381;DHT22;17169;50.966;11.038;2022-10-24T07:44:20;17.10;99.90
30381;DHT22;17169;50.966;11.038;2022-10-24T07:47:22;17.10;99.90
30381;DHT22;17169;50.966;11.038;2022-10-24T07:50:25;17.10;99.90
30381;DHT22;17169;50.966;11.038;2022-10-24T07:53:29;17.20;99.90
30381;DHT22;17169;50.966;11.038;2022-10-24T07:56:31;17.20;99.90
30381;DHT22;17169;50.966;11.038;2022-10-24T07:59:34;17.20;99.90
30381;DHT22;17169;50.966;11.038;2022-10-24T08:02:37;17.20;99.90
30381;DHT22;17169;50.966;11.038;2022-10-24T08:05:40;17.30;99.90
30381;DHT22;17169;50.966;11.038;2022-10-24T08:08:44;17.30;99.90
30381;DHT22;17169;50.966;11.038;2022-10-24T08:11:46;17.30;99.90
30381;DHT22;17169;50.966;11.038;2022-10-24T08:14:48;17.40;99.90
30381;DHT22;17169;50.966;11.038;2022-10-24T08:17:52;17.40;99.90
30381;DHT22;17169;50.966;11.038;2022-10-24T08:20:58;17.40;99.90
30381;DHT22;17169;50.966;11.038;2022-10-24T08:24:02;17.50;99.90
30381;DHT22;17169;50.966;11.038;2022-10-24T08:27:05;17.50;99.90
30381;DHT22;17169;50.966;11.038;2022-10-24T08:30:08;17.50;99.90
30381;DHT22;17169;50.966;11.038;2022-10-24T08:33:11;17.50;99.90
30381;DHT22;17169;50.966;11.038;2022-10-24T08:36:17;17.60;99.90
30381;DHT22;17169;50.966;11.038;2022-10-24T08:39:21;17.60;99.90
30381;DHT22;17169;50.966;11.038;2022-10-24T08:42:24;17.60;99.90
30381;DHT22;17169;50.966;11.038;2022-10-24T08:45:30;17.70;99.90
30381;DHT22;17169;50.966;11.038;2022-10-24T08:48:42;17.80;99.90
30381;DHT22;17169;50.966;11.038;2022-10-24T08:51:51;17.80;99.90
30381;DHT22;17169;50.966;11.038;2022-10-24T08:54:58;17.90;99.90
30381;DHT22;17169;50.966;11.038;2022-10-24T08:58:02;18.10;99.90
30381;DHT22;17169;50.966;11.038;2022-10-24T09:01:11;18.10;99.90
30381;DHT22;17169;50.966;11.038;2022-10-24T09:04:17;18.20;99.90
30381;DHT22;17169;50.966;11.038;2022-10-24T09:07:21;18.20;99.90
30381;DHT22;17169;50.966;11.038;2022-10-24T09:10:32;18.30;99.90
30381;DHT22;17169;50.966;11.038;2022-10-24T09:13:37;18.40;99.90
30381;DHT22;17169;50.966;11.038;2022-10-24T09:16:40;18.40;99.90
30381;DHT22;17169;50.966;11.038;2022-10-24T09:19:45;18.40;99.90
30381;DHT22;17169;50.966;11.038;2022-10-24T09:22:51;18.50;99.90
30381;DHT22;17169;50.966;11.038;2022-10-24T09:25:56;18.60;99.90
30381;DHT22;17169;50.966;11.038;2022-10-24T09:28:59;18.60;99.90
30381;DHT22;17169;50.966;11.038;2022-10-24T09:32:02;18.60;99.90
30381;DHT22;17169;50.966;11.038;2022-10-24T09:35:08;18.60;99.90
30381;DHT22;17169;50.966;11.038;2022-10-24T09:38:31;18.70;99.90
30381;DHT22;17169;50.966;11.038;2022-10-24T09:41:35;18.70;99.90
30381;DHT22;17169;50.966;11.038;2022-10-24T09:44:39;18.70;99.90
30381;DHT22;17169;50.966;11.038;2022-10-24T09:47:43;18.80;99.90
30381;DHT22;17169;50.966;11.038;2022-10-24T09:50:47;18.80;99.90
30381;DHT22;17169;50.966;11.038;2022-10-24T09:54:01;18.80;99.90
30381;DHT22;17169;50.966;11.038;2022-10-24T09:57:12;18.70;99.90
30381;DHT22;17169;50.966;11.038;2022-10-24T10:00:24;18.70;99.90
30381;DHT22;17169;50.966;11.038;2022-10-24T10:03:27;18.70;99.90
30381;DHT22;17169;50.966;11.038;2022-10-24T10:06:30;18.70;99.90
30381;DHT22;17169;50.966;11.038;2022-10-24T10:09:34;18.70;99.90
30381;DHT22;17169;50.966;11.038;2022-10-24T10:12:44;18.80;99.90
30381;DHT22;17169;50.966;11.038;2022-10-24T10:15:50;18.80;99.90
30381;DHT22;17169;50.966;11.038;2022-10-24T10:19:01;18.90;99.90
30381;DHT22;17169;50.966;11.038;2022-10-24T10:22:05;18.90;99.90
30381;DHT22;17169;50.966;11.038;2022-10-24T10:25:27;18.90;99.90
30381;DHT22;17169;50.966;11.038;2022-10-24T10:28:33;19.00;99.90
30381;DHT22;17169;50.966;11.038;2022-10-24T10:31:39;18.90;99.90
30381;DHT22;17169;50.966;11.038;2022-10-24T10:34:45;18.90;99.90
30381;DHT22;17169;50.966;11.038;2022-10-24T10:37:50;18.90;99.90
30381;DHT22;17169;50.966;11.038;2022-10-24T10:41:02;18.90;99.90
30381;DHT22;17169;50.966;11.038;2022-10-24T10:44:44;18.80;99.90
30381;DHT22;17169;50.966;11.038;2022-10-24T10:47:58;18.80;99.90
30381;DHT22;17169;50.966;11.038;2022-10-24T10:51:10;18.80;99.90
30381;DHT22;17169;50.966;11.038;2022-10-24T10:54:44;18.80;99.90
30381;DHT22;17169;50.966;11.038;2022-10-24T10:57:55;18.80;99.90
30381;DHT22;17169;50.966;11.038;2022-10-24T11:01:09;18.80;99.90
30381;DHT22;17169;50.966;11.038;2022-10-24T11:04:21;18.80;99.90
30381;DHT22;17169;50.966;11.038;2022-10-24T11:07:29;19.00;99.90
30381;DHT22;17169;50.966;11.038;2022-10-24T11:10:38;19.20;99.90
30381;DHT22;17169;50.966;11.038;2022-10-24T11:13:51;19.30;99.90
30381;DHT22;17169;50.966;11.038;2022-10-24T11:17:04;19.40;99.90
30381;DHT22;17169;50.966;11.038;2022-10-24T11:20:15;19.50;99.90
30381;DHT22;17169;50.966;11.038;2022-10-24T11:23:21;19.50;99.90
30381;DHT22;17169;50.966;11.038;2022-10-24T11:26:30;19.60;99.90
30381;DHT22;17169;50.966;11.038;2022-10-24T11:29:37;19.70;99.90
30381;DHT22;17169;50.966;11.038;2022-10-24T11:32:48;19.70;99.90
30381;DHT22;17169;50.966;11.038;2022-10-24T11:36:09;19.80;99.90
30381;DHT22;17169;50.966;11.038;2022-10-24T11:39:15;19.80;99.90
30381;DHT22;17169;50.966;11.038;2022-10-24T11:42:24;19.80;99.90
30381;DHT22;17169;50.966;11.038;2022-10-24T11:45:31;19.90;99.90
30381;DHT22;17169;50.966;11.038;2022-10-24T11:48:38;19.90;99.90
30381;DHT22;17169;50.966;11.038;2022-10-24T11:51:45;20.00;99.90
30381;DHT22;17169;50.966;11.038;2022-10-24T11:54:53;20.00;99.90
30381;DHT22;17169;50.966;11.038;2022-10-24T11:57:57;20.10;99.90
30381;DHT22;17169;50.966;11.038;2022-10-24T12:01:15;20.20;99.90
30381;DHT22;17169;50.966;11.038;2022-10-24T12:08:31;20.20;99.90
30381;DHT22;17169;50.966;11.038;2022-10-24T12:11:55;20.20;99.90
30381;DHT22;17169;50.966;11.038;2022-10-24T12:15:14;20.20;99.90
30381;DHT22;17169;50.966;11.038;2022-10-24T12:18:28;20.10;99.90
30381;DHT22;17169;50.966;11.038;2022-10-24T12:21:38;20.10;99.90
30381;DHT22;17169;50.966;11.038;2022-10-24T12:24:41;20.10;99.90
30381;DHT22;17169;50.966;11.038;2022-10-24T12:27:43;20.00;99.90
30381;DHT22;17169;50.966;11.038;2022-10-24T12:31:08;19.90;99.90
30381;DHT22;17169;50.966;11.038;2022-10-24T12:37:52;19.80;99.90
30381;DHT22;17169;50.966;11.038;2022-10-24T12:40:56;19.80;99.90
30381;DHT22;17169;50.966;11.038;2022-10-24T12:47:41;19.70;99.90
30381;DHT22;17169;50.966;11.038;2022-10-24T12:50:56;19.60;99.90
30381;DHT22;17169;50.966;11.038;2022-10-24T12:54:14;19.60;99.90
30381;DHT22;17169;50.966;11.038;2022-10-24T12:57:25;19.60;99.90
30381;DHT22;17169;50.966;11.038;2022-10-24T13:00:29;19.60;99.90
30381;DHT22;17169;50.966;11.038;2022-10-24T13:03:46;19.60;99.90
30381;DHT22;17169;50.966;11.038;2022-10-24T13:07:16;19.70;99.90
30381;DHT22;17169;50.966;11.038;2022-10-24T13:10:35;19.70;99.90
30381;DHT22;17169;50.966;11.038;2022-10-24T13:17:09;19.60;99.90
30381;DHT22;17169;50.966;11.038;2022-10-24T13:20:17;19.60;99.90
30381;DHT22;17169;50.966;11.038;2022-10-24T13:23:22;19.70;99.90
30381;DHT22;17169;50.966;11.038;2022-10-24T13:26:30;19.80;99.90
30381;DHT22;17169;50.966;11.038;2022-10-24T13:30:04;19.90;99.90
30381;DHT22;17169;50.966;11.038;2022-10-24T13:33:40;19.90;99.90
30381;DHT22;17169;50.966;11.038;2022-10-24T13:36:44;20.00;99.90
30381;DHT22;17169;50.966;11.038;2022-10-24T13:39:49;20.00;99.90
30381;DHT22;17169;50.966;11.038;2022-10-24T13:42:56;20.00;99.90
30381;DHT22;17169;50.966;11.038;2022-10-24T13:46:04;20.00;99.90
30381;DHT22;17169;50.966;11.038;2022-10-24T13:49:15;20.00;99.90
30381;DHT22;17169;50.966;11.038;2022-10-24T13:52:25;19.90;99.90
30381;DHT22;17169;50.966;11.038;2022-10-24T13:55:31;19.90;99.90
30381;DHT22;17169;50.966;11.038;2022-10-24T13:58:39;19.80;99.90
30381;DHT22;17169;50.966;11.038;2022-10-24T14:01:41;19.80;99.90
30381;DHT22;17169;50.966;11.038;2022-10-24T14:04:45;19.80;99.90
30381;DHT22;17169;50.966;11.038;2022-10-24T14:07:48;19.70;99.90
30381;DHT22;17169;50.966;11.038;2022-10-24T14:10:52;19.70;99.90
30381;DHT22;17169;50.966;11.038;2022-10-24T14:13:58;19.80;99.90
30381;DHT22;17169;50.966;11.038;2022-10-24T14:17:06;19.80;99.90
30381;DHT22;17169;50.966;11.038;2022-10-24T14:20:20;19.70;99.90
30381;DHT22;17169;50.966;11.038;2022-10-24T14:23:26;19.70;99.90
30381;DHT22;17169;50.966;11.038;2022-10-24T14:26:29;19.60;99.90
30381;DHT22;17169;50.966;11.038;2022-10-24T14:29:33;19.50;99.90
30381;DHT22;17169;50.966;11.038;2022-10-24T14:32:36;19.50;99.90
30381;DHT22;17169;50.966;11.038;2022-10-24T14:35:39;19.40;99.90
30381;DHT22;17169;50.966;11.038;2022-10-24T14:38:41;19.40;99.90
30381;DHT22;17169;50.966;11.038;2022-10-24T14:41:44;19.50;99.90
30381;DHT22;17169;50.966;11.038;2022-10-24T14:44:48;19.40;99.90
30381;DHT22;17169;50.966;11.038;2022-10-24T14:47:53;19.40;99.90
30381;DHT22;17169;50.966;11.038;2022-10-24T14:51:01;19.30;99.90
30381;DHT22;17169;50.966;11.038;2022-10-24T14:54:04;19.20;99.90
30381;DHT22;17169;50.966;11.038;2022-10-24T14:57:18;19.20;99.90
30381;DHT22;17169;50.966;11.038;2022-10-24T15:00:24;19.10;99.90
30381;DHT22;17169;50.966;11.038;2022-10-24T15:03:28;19.10;99.90
30381;DHT22;17169;50.966;11.038;2022-10-24T15:06:36;19.00;99.90
30381;DHT22;17169;50.966;11.038;2022-10-24T15:09:50;19.00;99.90
30381;DHT22;17169;50.966;11.038;2022-10-24T15:12:59;18.90;99.90
30381;DHT22;17169;50.966;11.038;2022-10-24T15:16:04;18.90;99.90
30381;DHT22;17169;50.966;11.038;2022-10-24T15:19:12;18.90;99.90
30381;DHT22;17169;50.966;11.038;2022-10-24T15:22:23;18.80;99.90
30381;DHT22;17169;50.966;11.038;2022-10-24T15:25:29;18.80;99.90
30381;DHT22;17169;50.966;11.038;2022-10-24T15:28:42;18.70;99.90
30381;DHT22;17169;50.966;11.038;2022-10-24T15:31:49;18.70;99.90
30381;DHT22;17169;50.966;11.038;2022-10-24T15:34:53;18.60;99.90
30381;DHT22;17169;50.966;11.038;2022-10-24T15:37:57;18.50;99.90
30381;DHT22;17169;50.966;11.038;2022-10-24T15:41:00;18.40;99.90
30381;DHT22;17169;50.966;11.038;2022-10-24T15:44:08;18.40;99.90
30381;DHT22;17169;50.966;11.038;2022-10-24T15:47:16;18.30;99.90
30381;DHT22;17169;50.966;11.038;2022-10-24T15:50:20;18.30;99.90
30381;DHT22;17169;50.966;11.038;2022-10-24T15:53:23;18.20;99.90
30381;DHT22;17169;50.966;11.038;2022-10-24T15:56:25;18.10;99.90
30381;DHT22;17169;50.966;11.038;2022-10-24T15:59:28;18.10;99.90
30381;DHT22;17169;50.966;11.038;2022-10-24T16:02:31;18.10;99.90
30381;DHT22;17169;50.966;11.038;2022-10-24T16:05:38;18.00;99.90
30381;DHT22;17169;50.966;11.038;2022-10-24T16:08:41;18.00;99.90
30381;DHT22;17169;50.966;11.038;2022-10-24T16:11:43;18.00;99.90
30381;DHT22;17169;50.966;11.038;2022-10-24T16:14:45;18.00;99.90
30381;DHT22;17169;50.966;11.038;2022-10-24T16:17:49;17.90;99.90
30381;DHT22;17169;50.966;11.038;2022-10-24T16:20:51;17.90;99.90
30381;DHT22;17169;50.966;11.038;2022-10-24T16:23:54;17.90;99.90
30381;DHT22;17169;50.966;11.038;2022-10-24T16:26:56;17.90;99.90
30381;DHT22;17169;50.966;11.038;2022-10-24T16:29:59;17.80;99.90
30381;DHT22;17169;50.966;11.038;2022-10-24T16:33:03;17.80;99.90
30381;DHT22;17169;50.966;11.038;2022-10-24T16:36:05;17.80;99.90
30381;DHT22;17169;50.966;11.038;2022-10-24T16:39:08;17.80;99.90
30381;DHT22;17169;50.966;11.038;2022-10-24T16:42:10;17.70;99.90
30381;DHT22;17169;50.966;11.038;2022-10-24T16:45:13;17.70;99.90
30381;DHT22;17169;50.966;11.038;2022-10-24T16:48:16;17.70;99.90
30381;DHT22;17169;50.966;11.038;2022-10-24T16:51:21;17.70;99.90
30381;DHT22;17169;50.966;11.038;2022-10-24T16:54:23;17.70;99.90
30381;DHT22;17169;50.966;11.038;2022-10-24T16:57:26;17.60;99.90
30381;DHT22;17169;50.966;11.038;2022-10-24T17:00:28;17.60;99.90
30381;DHT22;17169;50.966;11.038;2022-10-24T17:03:32;17.60;99.90
30381;DHT22;17169;50.966;11.038;2022-10-24T17:06:35;17.60;99.90
30381;DHT22;17169;50.966;11.038;2022-10-24T17:09:38;17.60;99.90
30381;DHT22;17169;50.966;11.038;2022-10-24T17:12:43;17.50;99.90
30381;DHT22;17169;50.966;11.038;2022-10-24T17:15:46;17.60;99.90
30381;DHT22;17169;50.966;11.038;2022-10-24T17:18:51;17.50;99.90
30381;DHT22;17169;50.966;11.038;2022-10-24T17:21:54;17.50;99.90
30381;DHT22;17169;50.966;11.038;2022-10-24T17:24:57;17.50;99.90
30381;DHT22;17169;50.966;11.038;2022-10-24T17:27:59;17.50;99.90
30381;DHT22;17169;50.966;11.038;2022-10-24T17:31:02;17.50;99.90
30381;DHT22;17169;50.966;11.038;2022-10-24T17:34:07;17.50;99.90
30381;DHT22;17169;50.966;11.038;2022-10-24T17:37:14;17.50;99.90
30381;DHT22;17169;50.966;11.038;2022-10-24T17:40:20;17.50;99.90
30381;DHT22;17169;50.966;11.038;2022-10-24T17:43:25;17.50;99.90
30381;DHT22;17169;50.966;11.038;2022-10-24T17:46:28;17.50;99.90
30381;DHT22;17169;50.966;11.038;2022-10-24T17:49:31;17.50;99.90
30381;DHT22;17169;50.966;11.038;2022-10-24T17:52:34;17.50;99.90
30381;DHT22;17169;50.966;11.038;2022-10-24T17:55:40;17.40;99.90
30381;DHT22;17169;50.966;11.038;2022-10-24T17:58:42;17.40;99.90
30381;DHT22;17169;50.966;11.038;2022-10-24T18:01:46;17.40;99.90
30381;DHT22;17169;50.966;11.038;2022-10-24T18:04:51;17.40;99.90
30381;DHT22;17169;50.966;11.038;2022-10-24T18:07:54;17.30;99.90
30381;DHT22;17169;50.966;11.038;2022-10-24T18:10:59;17.30;99.90
30381;DHT22;17169;50.966;11.038;2022-10-24T18:14:02;17.40;99.90
30381;DHT22;17169;50.966;11.038;2022-10-24T18:17:05;17.30;99.90
30381;DHT22;17169;50.966;11.038;2022-10-24T18:20:09;17.30;99.90
30381;DHT22;17169;50.966;11.038;2022-10-24T18:23:12;17.30;99.90
30381;DHT22;17169;50.966;11.038;2022-10-24T18:26:17;17.30;99.90
30381;DHT22;17169;50.966;11.038;2022-10-24T18:29:19;17.30;99.90
30381;DHT22;17169;50.966;11.038;2022-10-24T18:32:22;17.30;99.90
30381;DHT22;17169;50.966;11.038;2022-10-24T18:35:26;17.30;99.90
30381;DHT22;17169;50.966;11.038;2022-10-24T18:38:32;17.20;99.90
30381;DHT22;17169;50.966;11.038;2022-10-24T18:41:41;17.20;99.90
30381;DHT22;17169;50.966;11.038;2022-10-24T18:44:45;17.20;99.90
30381;DHT22;17169;50.966;11.038;2022-10-24T18:47:48;17.20;99.90
30381;DHT22;17169;50.966;11.038;2022-10-24T18:50:53;17.20;99.90
30381;DHT22;17169;50.966;11.038;2022-10-24T18:53:56;17.20;99.90
30381;DHT22;17169;50.966;11.038;2022-10-24T18:56:59;17.20;99.90
30381;DHT22;17169;50.966;11.038;2022-10-24T19:00:02;17.10;99.90
30381;DHT22;17169;50.966;11.038;2022-10-24T19:03:13;17.10;99.90
30381;DHT22;17169;50.966;11.038;2022-10-24T19:06:22;17.10;99.90
30381;DHT22;17169;50.966;11.038;2022-10-24T19:09:26;17.10;99.90
30381;DHT22;17169;50.966;11.038;2022-10-24T19:12:28;17.00;99.90
30381;DHT22;17169;50.966;11.038;2022-10-24T19:15:31;17.00;99.90
30381;DHT22;17169;50.966;11.038;2022-10-24T19:18:35;17.00;99.90
30381;DHT22;17169;50.966;11.038;2022-10-24T19:21:39;17.00;99.90
30381;DHT22;17169;50.966;11.038;2022-10-24T19:24:41;17.00;99.90
30381;DHT22;17169;50.966;11.038;2022-10-24T19:27:44;17.00;99.90
30381;DHT22;17169;50.966;11.038;2022-10-24T19:30:47;17.00;99.90
30381;DHT22;17169;50.966;11.038;2022-10-24T19:33:52;16.90;99.90